Time;durP1;ratioP1;P1;durP2;ratioP2;P2;SDS_P1;SDS_P2;PMS_P1;PMS_P2;Temp;Humidity;BMP_temperature;BMP_pressure;BME280_temperature;BME280_humidity;BME280_pressure;Samples;Min_cycle;Max_cycle;Signal;HPM_P1;HPM_P2
2023/05/19 00:00:38;;;;;;;;;11.50;11.50;;;;;11.62;100.00;100231.72;6311861;20;2786767;-49
2023/05/19 00:03:07;;;;;;;;;10.00;10.00;;;;;11.72;100.00;100225.84;6284477;20;2784723;-51
2023/05/19 00:05:44;;;;;;;;;13.67;10.67;;;;;11.82;100.00;100229.69;6280843;20;3515875;-54
2023/05/19 00:08:16;;;;;;;;;14.00;13.00;;;;;11.76;100.00;100241.69;6307558;20;3536739;-54
2023/05/19 00:10:44;;;;;;;;;12.67;11.33;;;;;11.79;100.00;100246.00;6311056;20;3511711;-49
2023/05/19 00:13:12;;;;;;;;;12.00;12.00;;;;;11.89;100.00;100244.56;6313885;20;2789839;-50
2023/05/19 00:15:40;;;;;;;;;17.00;12.67;;;;;11.73;100.00;100238.31;6278881;20;2805577;-50
2023/05/19 00:18:12;;;;;;;;;17.00;11.33;;;;;11.54;100.00;100236.66;6309761;20;2799392;-53
2023/05/19 00:20:41;;;;;;;;;15.00;12.00;;;;;11.55;100.00;100240.22;6308782;20;3515258;-50
2023/05/19 00:23:10;;;;;;;;;12.00;10.00;;;;;11.59;100.00;100239.97;6312862;20;2796180;-50
2023/05/19 00:25:37;;;;;;;;;15.00;14.00;;;;;11.53;100.00;100229.56;6288275;20;2806484;-51
2023/05/19 00:28:05;;;;;;;;;15.00;13.50;;;;;11.58;100.00;100227.47;6285957;20;2809754;-52
2023/05/19 00:30:32;;;;;;;;;13.00;10.50;;;;;11.58;100.00;100226.59;6284681;20;2787768;-54
2023/05/19 00:33:00;;;;;;;;;13.00;13.00;;;;;11.71;100.00;100232.16;6284666;20;2807743;-49
2023/05/19 00:35:29;;;;;;;;;15.67;12.00;;;;;11.71;100.00;100224.06;6314199;20;3522333;-51
2023/05/19 00:37:56;;;;;;;;;16.50;15.00;;;;;11.56;100.00;100225.84;6319434;20;2816943;-47
2023/05/19 00:40:26;;;;;;;;;12.33;12.33;;;;;11.38;100.00;100225.06;6285011;20;3520155;-52
2023/05/19 00:42:53;;;;;;;;;14.50;13.50;;;;;11.50;100.00;100223.47;6319653;20;2789025;-46
2023/05/19 00:45:21;;;;;;;;;14.33;14.33;;;;;11.51;100.00;100226.09;6286288;20;3536832;-50
2023/05/19 00:47:49;;;;;;;;;14.00;12.00;;;;;11.71;100.00;100218.69;6318563;20;2776354;-50
2023/05/19 00:50:16;;;;;;;;;15.00;15.00;;;;;11.78;100.00;100218.25;6288682;20;2805460;-52
2023/05/19 00:52:43;;;;;;;;;13.00;13.00;;;;;11.80;100.00;100210.97;6283320;20;2800293;-50
2023/05/19 00:55:12;;;;;;;;;13.50;13.50;;;;;11.64;100.00;100216.38;6289531;20;2792157;-51
2023/05/19 00:57:42;;;;;;;;;11.33;11.00;;;;;11.69;100.00;100209.84;6286372;20;2792079;-52
2023/05/19 01:00:11;;;;;;;;;14.00;12.33;;;;;11.54;100.00;100211.59;6315755;20;3513848;-53
2023/05/19 01:02:40;;;;;;;;;13.00;13.00;;;;;11.58;100.00;100214.00;6312647;20;3510256;-48
2023/05/19 01:05:09;;;;;;;;;15.33;13.00;;;;;11.52;100.00;100218.88;6314803;20;3540143;-49
2023/05/19 01:07:40;;;;;;;;;13.00;12.50;;;;;11.62;100.00;100212.91;6357094;20;1882583;-55
2023/05/19 01:10:08;;;;;;;;;13.50;13.50;;;;;11.59;100.00;100215.75;6315513;20;2798344;-54
2023/05/19 01:12:38;;;;;;;;;14.67;14.67;;;;;11.52;100.00;100219.75;6284475;20;3527523;-52
2023/05/19 01:15:08;;;;;;;;;13.33;13.33;;;;;11.55;100.00;100206.13;6313649;20;3523582;-54
2023/05/19 01:18:02;;;;;;;;;16.67;14.33;;;;;11.60;100.00;100208.56;6311450;20;3544099;-53
2023/05/19 01:20:46;;;;;;;;;14.00;13.00;;;;;11.54;100.00;100216.97;6282695;20;2805554;-52
2023/05/19 01:24:07;;;;;;;;;14.60;14.00;;;;;11.27;100.00;100220.28;6309713;20;2785730;-54
2023/05/19 01:27:06;;;;;;;;;14.00;12.67;;;;;11.32;100.00;100220.91;6277988;20;3533587;-49
2023/05/19 01:30:24;;;;;;;;;15.33;15.33;;;;;11.36;100.00;100218.88;6282607;20;3531546;-48
2023/05/19 01:32:58;;;;;;;;;13.50;13.50;;;;;11.44;100.00;100219.31;6310396;20;2802392;-53
2023/05/19 01:35:27;;;;;;;;;18.67;15.67;;;;;11.33;100.00;100208.31;6281393;20;3536677;-51
2023/05/19 01:37:58;;;;;;;;;16.00;16.00;;;;;11.41;100.00;100214.13;6279993;20;3560670;-50
2023/05/19 01:40:28;;;;;;;;;15.33;15.00;;;;;11.34;100.00;100210.91;6282158;20;3528420;-49
2023/05/19 01:42:58;;;;;;;;;17.67;15.00;;;;;11.23;100.00;100209.78;6312011;20;3550325;-49
2023/05/19 01:45:32;;;;;;;;;15.50;12.00;;;;;11.26;100.00;100202.41;6314694;20;2821113;-50
2023/05/19 01:48:04;;;;;;;;;20.33;19.33;;;;;11.14;100.00;100200.41;6281326;20;3560724;-50
2023/05/19 01:50:34;;;;;;;;;15.00;15.00;;;;;11.14;100.00;100201.28;6281459;20;2496232;-50
2023/05/19 01:53:01;;;;;;;;;15.00;13.50;;;;;11.06;100.00;100195.47;6284301;20;2801378;-53
2023/05/19 01:55:29;;;;;;;;;15.50;14.00;;;;;11.07;100.00;100199.88;6283200;20;2789972;-53
2023/05/19 01:58:10;;;;;;;;;17.50;13.00;;;;;11.17;100.00;100195.72;6311080;20;2790885;-49
2023/05/19 02:01:07;;;;;;;;;8.80;8.60;;;;;11.06;100.00;100194.56;6305031;20;2742027;-50
2023/05/19 02:03:55;;;;;;;;;13.00;13.00;;;;;11.11;100.00;100203.25;6310578;20;2496627;-51
2023/05/19 02:06:26;;;;;;;;;15.67;14.00;;;;;11.08;100.00;100201.59;6282029;20;3517977;-48
2023/05/19 02:09:15;;;;;;;;;12.33;12.33;;;;;11.07;100.00;100190.94;6313956;20;2786837;-49
2023/05/19 02:12:10;;;;;;;;;14.00;11.00;;;;;11.07;100.00;100194.50;6317355;20;2792009;-50
2023/05/19 02:15:13;;;;;;;;;13.50;11.00;;;;;10.97;100.00;100194.13;6289234;20;2789831;-50
2023/05/19 02:17:47;;;;;;;;;14.00;12.50;;;;;11.10;100.00;100191.63;6285681;20;2796128;-47
2023/05/19 02:20:16;;;;;;;;;15.00;11.00;;;;;11.07;100.00;100194.50;6287378;20;2780551;-48
2023/05/19 02:22:44;;;;;;;;;13.00;12.67;;;;;11.20;100.00;100195.56;6283015;20;3519077;-50
2023/05/19 02:25:13;;;;;;;;;15.00;14.67;;;;;11.27;100.00;100197.88;6314495;20;3518044;-49
2023/05/19 02:27:41;;;;;;;;;15.00;13.00;;;;;11.26;100.00;100198.84;6316247;20;2789838;-47
2023/05/19 02:30:10;;;;;;;;;12.00;12.00;;;;;11.09;100.00;100208.72;6282202;20;3510674;-50
2023/05/19 02:32:37;;;;;;;;;13.00;13.00;;;;;11.21;100.00;100207.16;6315738;20;2789950;-51
2023/05/19 02:35:05;;;;;;;;;14.67;14.67;;;;;11.19;100.00;100209.09;6280616;20;2795220;-50
2023/05/19 02:37:34;;;;;;;;;19.50;18.00;;;;;11.05;100.00;100201.78;6310536;20;2834684;-52
2023/05/19 02:40:01;;;;;;;;;17.50;15.00;;;;;11.11;100.00;100204.16;6278472;20;2500287;-49
2023/05/19 02:42:30;;;;;;;;;19.00;19.00;;;;;11.06;100.00;100208.91;6283506;20;2839891;-52
2023/05/19 02:44:59;;;;;;;;;18.50;17.50;;;;;11.22;100.00;100211.59;6281503;20;2494034;-50
2023/05/19 02:47:26;;;;;;;;;17.00;17.00;;;;;11.05;100.00;100212.53;6275754;20;2500679;-49
2023/05/19 02:49:54;;;;;;;;;21.00;18.00;;;;;11.18;100.00;100212.72;6277655;20;2491950;-51
2023/05/19 02:52:21;;;;;;;;;20.00;20.00;;;;;11.07;100.00;100205.25;6279101;20;2494042;-52
2023/05/19 02:54:49;;;;;;;;;18.50;17.00;;;;;11.11;100.00;100212.22;6280057;20;2822409;-51
2023/05/19 02:57:16;;;;;;;;;20.00;20.00;;;;;11.15;100.00;100208.38;6279851;20;2496086;-48
2023/05/19 02:59:44;;;;;;;;;17.00;16.33;;;;;11.19;100.00;100212.66;6279235;20;3551331;-52
2023/05/19 03:02:12;;;;;;;;;18.00;16.00;;;;;11.12;100.00;100208.56;6281369;20;3554543;-54
2023/05/19 03:04:41;;;;;;;;;15.00;15.00;;;;;11.13;100.00;100221.03;6280156;20;2496546;-49
2023/05/19 03:07:09;;;;;;;;;10.00;10.00;;;;;11.00;100.00;100214.59;6280162;20;2783671;-50
2023/05/19 03:09:38;;;;;;;;;20.00;19.50;;;;;11.07;100.00;100215.13;6308225;20;2838836;-53
2023/05/19 03:12:07;;;;;;;;;28.00;22.00;;;;;10.86;100.00;100209.13;6281889;20;2844538;-48
2023/05/19 03:14:39;;;;;;;;;28.50;23.00;;;;;10.96;100.00;100204.97;6279707;20;2856529;-48
2023/05/19 03:17:09;;;;;;;;;28.00;23.67;;;;;11.07;100.00;100209.75;6280908;20;2856599;-49
2023/05/19 03:19:37;;;;;;;;;26.33;23.33;;;;;11.04;100.00;100213.50;6310960;20;3578392;-49
2023/05/19 03:22:06;;;;;;;;;22.50;20.50;;;;;10.88;100.00;100212.59;6280429;20;2832664;-50
2023/05/19 03:24:35;;;;;;;;;24.50;24.50;;;;;10.81;100.00;100213.88;6278859;20;2845240;-47
2023/05/19 03:27:07;;;;;;;;;25.00;20.00;;;;;11.08;100.00;100206.97;6277634;20;2845168;-47
2023/05/19 03:29:35;;;;;;;;;28.67;26.00;;;;;11.15;100.00;100216.44;6281376;20;3589909;-47
2023/05/19 03:32:04;;;;;;;;;26.50;24.50;;;;;11.12;100.00;100216.63;6277014;20;2841078;-49
2023/05/19 03:34:32;;;;;;;;;27.00;27.00;;;;;10.98;100.00;100208.47;6279331;20;2846158;-52
2023/05/19 03:37:01;;;;;;;;;24.00;23.00;;;;;11.10;100.00;100210.44;6279276;20;2839965;-50
2023/05/19 03:39:28;;;;;;;;;25.00;20.50;;;;;11.26;100.00;100201.53;6280428;20;2500377;-51
2023/05/19 03:41:56;;;;;;;;;25.00;23.50;;;;;11.16;100.00;100212.81;6279660;20;2828389;-54
2023/05/19 03:44:25;;;;;;;;;20.00;18.50;;;;;11.11;100.00;100216.69;6280873;20;2833608;-53
2023/05/19 03:46:53;;;;;;;;;22.00;20.50;;;;;11.13;100.00;100214.78;6277565;20;2844068;-50
2023/05/19 03:49:21;;;;;;;;;25.50;21.00;;;;;11.18;100.00;100221.63;6279755;20;2838820;-51
2023/05/19 03:51:49;;;;;;;;;22.50;21.00;;;;;11.23;100.00;100220.53;6280329;20;2844028;-50
2023/05/19 03:54:19;;;;;;;;;21.00;21.00;;;;;11.29;100.00;100220.19;6278800;20;2837792;-50
2023/05/19 03:56:48;;;;;;;;;23.00;18.50;;;;;11.30;100.00;100219.25;6280216;20;2839870;-48
2023/05/19 03:59:15;;;;;;;;;23.00;22.00;;;;;11.39;100.00;100224.09;6281375;20;2494027;-52
2023/05/19 04:01:43;;;;;;;;;20.00;18.00;;;;;11.27;100.00;100228.34;6284146;20;2840012;-54
2023/05/19 04:04:11;;;;;;;;;16.00;16.00;;;;;11.51;100.00;100236.84;6282753;20;2492022;-52
2023/05/19 04:06:39;;;;;;;;;17.00;17.00;;;;;11.78;100.00;100244.28;6286105;20;3561178;-53
2023/05/19 04:09:14;;;;;;;;;16.00;14.50;;;;;11.75;100.00;100231.88;6283464;20;2500284;-48
2023/05/19 04:11:42;;;;;;;;;16.67;16.67;;;;;11.48;100.00;100239.72;6282824;20;3562750;-50
2023/05/19 04:14:10;;;;;;;;;14.00;14.00;;;;;11.44;100.00;100230.06;6284929;20;3538798;-48
2023/05/19 04:16:40;;;;;;;;;16.33;15.67;;;;;11.54;100.00;100243.88;6316048;20;3552347;-49
2023/05/19 04:19:08;;;;;;;;;16.67;15.67;;;;;11.72;100.00;100245.53;6284653;20;3540905;-49
2023/05/19 04:21:36;;;;;;;;;15.67;14.33;;;;;11.79;100.00;100246.88;6315803;20;3525380;-52
2023/05/19 04:24:05;;;;;;;;;15.00;14.00;;;;;11.72;100.00;100250.03;6285617;20;2798645;-49
2023/05/19 04:26:33;;;;;;;;;14.00;12.00;;;;;11.75;100.00;100244.47;6291132;20;2794021;-50
2023/05/19 04:29:03;;;;;;;;;16.00;12.50;;;;;11.88;100.00;100244.69;6289610;20;2797252;-48
2023/05/19 04:31:34;;;;;;;;;12.40;11.20;;;;;11.83;100.00;100247.59;6312051;20;2786763;-52
2023/05/19 04:34:01;;;;;;;;;13.00;13.00;;;;;12.10;100.00;100250.53;6287188;20;2800390;-52
2023/05/19 04:36:28;;;;;;;;;13.00;10.00;;;;;12.12;100.00;100254.00;6292762;20;2674309;-51
2023/05/19 04:39:01;;;;;;;;;11.67;11.67;;;;;12.73;100.00;100260.22;6282595;20;2786775;-48
2023/05/19 04:41:30;;;;;;;;;9.60;9.60;;;;;12.91;100.00;100259.06;6338801;20;2753395;-50
2023/05/19 04:43:57;;;;;;;;;11.00;11.00;;;;;12.81;100.00;100252.53;6284581;20;2786036;-54
2023/05/19 04:46:26;;;;;;;;;11.00;10.50;;;;;12.54;100.00;100265.00;6288221;20;2794146;-50
2023/05/19 04:48:55;;;;;;;;;12.00;12.00;;;;;12.61;100.00;100252.88;6289794;20;2788871;-48
2023/05/19 04:51:30;;;;;;;;;11.00;9.50;;;;;12.60;100.00;100253.84;6286055;20;2774322;-53
2023/05/19 04:53:57;;;;;;;;;10.00;10.00;;;;;12.73;100.00;100261.06;6290872;20;2774200;-53
2023/05/19 04:56:26;;;;;;;;;10.00;9.00;;;;;13.07;100.00;100268.91;6286647;20;2771273;-50
2023/05/19 04:58:55;;;;;;;;;13.20;11.00;;;;;13.81;100.00;100265.94;6309204;20;2793198;-51
2023/05/19 05:01:24;;;;;;;;;12.00;12.00;;;;;13.44;100.00;100277.41;6280601;20;2794121;-50
2023/05/19 05:03:57;;;;;;;;;12.00;10.00;;;;;13.69;100.00;100269.47;6320431;20;2791930;-52
2023/05/19 05:06:27;;;;;;;;;11.00;11.00;;;;;13.64;100.00;100268.88;6284056;20;3513932;-55
2023/05/19 05:08:55;;;;;;;;;13.00;12.00;;;;;13.62;100.00;100270.81;6313609;20;2794267;-50
2023/05/19 05:11:24;;;;;;;;;14.00;11.00;;;;;14.25;100.00;100263.97;6315585;20;2792389;-52
2023/05/19 05:13:52;;;;;;;;;13.00;12.00;;;;;15.25;92.54;100270.56;6319612;20;2797152;-49
2023/05/19 05:16:21;;;;;;;;;12.20;10.80;;;;;14.36;97.78;100271.34;6306988;20;2788836;-49
2023/05/19 05:18:50;;;;;;;;;12.67;11.67;;;;;14.23;98.76;100268.59;6283538;20;2789885;-54
2023/05/19 05:21:18;;;;;;;;;12.00;11.00;;;;;14.14;100.00;100278.19;6314531;20;3510759;-52
2023/05/19 05:23:46;;;;;;;;;14.00;13.00;;;;;14.43;100.00;100278.06;6312908;20;2798328;-51
2023/05/19 05:26:18;;;;;;;;;12.00;11.00;;;;;14.08;100.00;100280.41;6284166;20;2659775;-52
2023/05/19 05:28:46;;;;;;;;;15.67;13.00;;;;;14.08;100.00;100278.56;6283939;20;3527349;-50
2023/05/19 05:31:15;;;;;;;;;14.67;11.67;;;;;14.12;100.00;100277.41;6315033;20;3537865;-52
2023/05/19 05:33:44;;;;;;;;;16.67;13.00;;;;;14.07;100.00;100276.84;6313455;20;3525387;-53
2023/05/19 05:36:12;;;;;;;;;15.00;13.00;;;;;14.03;100.00;100287.00;6317019;20;2489854;-53
2023/05/19 05:38:40;;;;;;;;;12.67;12.67;;;;;13.92;100.00;100280.56;6284010;20;3522530;-52
2023/05/19 05:41:07;;;;;;;;;12.50;11.50;;;;;13.94;100.00;100286.72;6321458;20;2805559;-51
2023/05/19 05:43:35;;;;;;;;;11.00;11.00;;;;;13.97;100.00;100286.53;6285039;20;2492027;-55
2023/05/19 05:46:02;;;;;;;;;12.00;12.00;;;;;14.07;100.00;100300.28;6290151;20;2671086;-53
2023/05/19 05:48:31;;;;;;;;;13.33;11.67;;;;;13.68;100.00;100296.53;6285087;20;2796243;-51
2023/05/19 05:50:58;;;;;;;;;11.00;10.00;;;;;13.79;100.00;100297.56;6320534;20;2789187;-56
2023/05/19 05:53:30;;;;;;;;;12.00;11.00;;;;;14.00;100.00;100291.72;6289986;20;2783658;-52
2023/05/19 05:55:58;;;;;;;;;13.00;12.00;;;;;14.31;100.00;100295.09;6288413;20;2794056;-51
2023/05/19 05:58:27;;;;;;;;;7.60;7.60;;;;;14.19;100.00;100299.47;6313048;20;2752373;-54
2023/05/19 06:00:57;;;;;;;;;11.20;11.20;;;;;14.37;100.00;100297.38;6345822;20;2789929;-55
2023/05/19 06:03:28;;;;;;;;;11.75;11.75;;;;;14.41;100.00;100293.50;6332634;20;1882674;-49
2023/05/19 06:05:55;;;;;;;;;11.00;11.00;;;;;14.52;100.00;100296.31;6320660;20;2781588;-52
2023/05/19 06:08:22;;;;;;;;;11.00;11.00;;;;;14.91;100.00;100300.84;6290858;20;2797182;-53
2023/05/19 06:10:50;;;;;;;;;11.67;11.67;;;;;14.65;100.00;100294.53;6284679;20;3516031;-52
2023/05/19 06:13:22;;;;;;;;;12.33;12.33;;;;;14.96;100.00;100305.94;6315085;20;3512849;-54
2023/05/19 06:15:50;;;;;;;;;15.50;13.00;;;;;15.29;98.26;100293.69;6317820;20;2795074;-52
2023/05/19 06:18:18;;;;;;;;;13.33;11.67;;;;;15.40;96.52;100301.91;6282631;20;3517968;-54
2023/05/19 06:20:46;;;;;;;;;13.67;13.00;;;;;15.17;98.00;100316.25;6315694;20;2799258;-55
2023/05/19 06:23:15;;;;;;;;;13.33;12.67;;;;;15.72;97.45;100312.31;6311028;20;3521145;-56
2023/05/19 06:25:43;;;;;;;;;15.33;14.00;;;;;15.70;97.70;100312.41;6284676;20;3534629;-56
2023/05/19 06:28:11;;;;;;;;;14.33;13.00;;;;;15.92;96.64;100314.38;6315782;20;3532560;-56
2023/05/19 06:30:38;;;;;;;;;11.00;11.00;;;;;15.92;94.74;100306.28;6319802;20;2791957;-59
2023/05/19 06:33:06;;;;;;;;;14.00;14.00;;;;;16.10;97.58;100330.28;6288761;20;2780595;-59
2023/05/19 06:35:33;;;;;;;;;13.00;13.00;;;;;16.55;93.43;100322.38;6286336;20;2500343;-59
2023/05/19 06:38:00;;;;;;;;;12.00;12.00;;;;;16.48;92.37;100321.09;6291512;20;2801468;-59
2023/05/19 06:40:28;;;;;;;;;13.00;11.50;;;;;17.11;91.14;100326.16;6289970;20;2794124;-56
2023/05/19 06:42:56;;;;;;;;;10.67;9.33;;;;;17.41;90.59;100321.97;6282439;20;2783686;-57
2023/05/19 06:45:23;;;;;;;;;13.50;11.50;;;;;18.08;88.22;100331.09;6321180;20;2794095;-58
2023/05/19 06:47:52;;;;;;;;;13.33;11.67;;;;;18.15;87.66;100335.88;6271329;20;2788060;-59
2023/05/19 06:50:21;;;;;;;;;12.00;12.00;;;;;17.95;90.62;100340.25;6314864;20;3513821;-55
2023/05/19 06:52:48;;;;;;;;;13.00;10.50;;;;;18.59;83.94;100342.19;6317255;20;2786762;-50
2023/05/19 06:55:16;;;;;;;;;11.67;11.00;;;;;18.79;83.98;100343.22;6283366;20;3521196;-54
2023/05/19 06:57:44;;;;;;;;;13.00;12.00;;;;;18.69;81.66;100342.25;6313688;20;3511753;-52
2023/05/19 07:00:13;;;;;;;;;13.67;13.00;;;;;18.90;80.78;100334.13;6314792;20;3534698;-51
2023/05/19 07:02:46;;;;;;;;;11.33;11.00;;;;;19.46;81.27;100335.66;6280817;20;3516037;-53
2023/05/19 07:05:14;;;;;;;;;12.33;12.33;;;;;20.12;78.66;100332.47;6321441;20;2791966;-52
2023/05/19 07:07:43;;;;;;;;;12.67;12.67;;;;;20.01;81.08;100329.84;6314287;20;3525309;-51
2023/05/19 07:10:11;;;;;;;;;15.67;14.33;;;;;19.86;77.72;100332.97;6316295;20;2492381;-57
2023/05/19 07:12:39;;;;;;;;;12.33;12.33;;;;;19.93;79.66;100331.44;6311739;20;3534705;-50
2023/05/19 07:15:08;;;;;;;;;11.33;11.33;;;;;20.09;80.40;100333.63;6280705;20;3508590;-53
2023/05/19 07:17:36;;;;;;;;;15.67;12.00;;;;;20.43;78.42;100335.94;6314586;20;2483728;-51
2023/05/19 07:20:08;;;;;;;;;13.67;11.00;;;;;20.58;78.91;100339.16;6315546;20;3519053;-55
2023/05/19 07:22:38;;;;;;;;;9.67;9.67;;;;;21.12;75.72;100340.44;6287515;20;2779516;-52
2023/05/19 07:25:07;;;;;;;;;13.00;13.00;;;;;20.73;76.20;100332.28;6312942;20;3524794;-51
2023/05/19 07:27:35;;;;;;;;;11.67;11.67;;;;;20.77;74.86;100331.00;6316776;20;2483766;-56
2023/05/19 07:30:04;;;;;;;;;13.00;13.00;;;;;20.20;77.66;100327.19;6312668;20;3534781;-52
2023/05/19 07:32:32;;;;;;;;;15.67;14.00;;;;;20.57;78.10;100329.28;6284048;20;3541937;-52
2023/05/19 07:35:01;;;;;;;;;16.00;15.00;;;;;20.43;78.69;100330.50;6326771;20;3537835;-54
2023/05/19 07:37:29;;;;;;;;;11.33;11.33;;;;;19.76;77.70;100328.50;6321200;20;3513800;-58
2023/05/19 07:39:57;;;;;;;;;14.00;14.00;;;;;20.39;76.67;100334.53;6290886;20;3515973;-53
2023/05/19 07:42:25;;;;;;;;;13.00;13.00;;;;;19.81;76.63;100335.25;6324585;20;3532599;-51
2023/05/19 07:44:53;;;;;;;;;13.00;13.00;;;;;19.44;80.13;100337.66;6290181;20;3536725;-53
2023/05/19 07:47:21;;;;;;;;;14.00;12.67;;;;;19.07;80.83;100333.56;6294810;20;2799343;-53
2023/05/19 07:49:50;;;;;;;;;13.33;12.00;;;;;19.15;81.57;100332.88;6322711;20;3512831;-53
2023/05/19 07:52:18;;;;;;;;;13.00;11.00;;;;;19.19;81.01;100328.88;6325085;20;2489909;-53
2023/05/19 07:54:46;;;;;;;;;13.50;13.50;;;;;19.26;81.41;100338.25;6324645;20;2798458;-54
2023/05/19 07:57:15;;;;;;;;;16.67;16.67;;;;;19.91;79.94;100336.16;6292639;20;3555496;-52
2023/05/19 07:59:43;;;;;;;;;10.33;9.67;;;;;20.61;76.41;100336.16;6298870;20;2783652;-51
2023/05/19 08:02:11;;;;;;;;;15.33;12.00;;;;;20.01;78.78;100330.75;6327623;20;2494051;-52
2023/05/19 08:04:40;;;;;;;;;13.67;13.67;;;;;19.93;80.30;100338.72;6325756;20;3532579;-54
2023/05/19 08:07:08;;;;;;;;;14.00;14.00;;;;;19.79;83.37;100329.06;6292563;20;2487812;-54
2023/05/19 08:09:36;;;;;;;;;14.00;13.00;;;;;20.75;78.38;100337.59;6319285;20;2483779;-51
2023/05/19 08:12:04;;;;;;;;;14.67;13.33;;;;;19.96;78.81;100333.00;6324212;20;2483635;-53
2023/05/19 08:14:33;;;;;;;;;12.67;12.67;;;;;19.41;84.65;100329.75;6323513;20;3526298;-52
2023/05/19 08:17:01;;;;;;;;;11.00;11.00;;;;;19.55;83.53;100331.25;6294173;20;2792178;-51
2023/05/19 08:19:29;;;;;;;;;11.33;11.33;;;;;20.02;78.82;100337.03;6324501;20;3527437;-51
2023/05/19 08:22:00;;;;;;;;;14.00;14.00;;;;;20.55;78.44;100337.59;6310269;20;3541943;-52
2023/05/19 08:24:32;;;;;;;;;12.67;12.67;;;;;20.99;78.04;100332.56;6326597;20;3521129;-54
2023/05/19 08:27:03;;;;;;;;;13.33;13.33;;;;;22.34;75.40;100337.66;6321713;20;3533613;-57
2023/05/19 08:29:31;;;;;;;;;9.00;9.00;;;;;21.77;72.42;100337.81;6290967;20;3479526;-57
2023/05/19 08:32:01;;;;;;;;;12.00;12.00;;;;;20.97;75.32;100344.63;6325223;20;2795191;-54
2023/05/19 08:34:29;;;;;;;;;14.33;12.33;;;;;21.52;77.93;100342.09;6320218;20;3529419;-57
2023/05/19 08:36:58;;;;;;;;;10.00;10.00;;;;;22.10;72.10;100336.34;6326227;20;2794079;-53
2023/05/19 08:39:27;;;;;;;;;10.67;10.67;;;;;22.31;71.22;100329.78;6328741;20;2786783;-51
2023/05/19 08:41:55;;;;;;;;;12.00;11.33;;;;;21.79;72.45;100337.66;6324105;20;3516052;-52
2023/05/19 08:44:23;;;;;;;;;10.33;10.33;;;;;22.25;70.04;100341.31;6316036;20;2483657;-54
2023/05/19 08:46:55;;;;;;;;;13.67;11.33;;;;;21.58;70.15;100338.75;6322646;20;2789919;-54
2023/05/19 08:49:29;;;;;;;;;11.67;11.33;;;;;21.94;72.29;100341.63;6319113;20;2483626;-56
2023/05/19 08:52:05;;;;;;;;;12.67;12.67;;;;;20.69;74.79;100333.56;6318392;20;3538835;-53
2023/05/19 08:54:44;;;;;;;;;14.00;11.33;;;;;20.83;76.68;100332.28;6285119;20;2485689;-55
2023/05/19 08:57:14;;;;;;;;;11.00;11.00;;;;;21.20;74.49;100339.72;6317582;20;2788825;-50
2023/05/19 08:59:43;;;;;;;;;12.33;11.00;;;;;21.10;72.55;100336.13;6318753;20;2797189;-56
2023/05/19 09:02:13;;;;;;;;;12.33;11.00;;;;;21.29;74.42;100327.03;6315144;20;2789886;-52
2023/05/19 09:04:44;;;;;;;;;14.33;13.00;;;;;21.87;70.31;100327.69;6317599;20;2483614;-51
2023/05/19 09:07:14;;;;;;;;;10.33;10.33;;;;;22.26;72.38;100326.66;6315784;20;3513818;-57
2023/05/19 09:09:42;;;;;;;;;12.00;12.00;;;;;22.50;70.51;100321.41;6318455;20;3539846;-51
2023/05/19 09:12:12;;;;;;;;;10.67;10.67;;;;;21.79;71.96;100324.00;6284395;20;3528520;-49
2023/05/19 09:14:41;;;;;;;;;12.00;11.33;;;;;21.60;74.20;100323.06;6283516;20;3499392;-56
2023/05/19 09:17:09;;;;;;;;;14.33;14.00;;;;;21.39;75.10;100314.25;6315271;20;3535777;-53
2023/05/19 09:19:43;;;;;;;;;12.00;12.00;;;;;20.07;76.61;100310.22;6287367;20;3519129;-53
2023/05/19 09:22:15;;;;;;;;;10.20;10.20;;;;;20.45;77.85;100308.53;6308319;20;2792965;-53
2023/05/19 09:24:43;;;;;;;;;11.67;11.33;;;;;21.72;72.92;100306.47;6283894;20;2485738;-51
2023/05/19 09:27:15;;;;;;;;;12.00;11.67;;;;;21.35;74.16;100310.03;6310789;20;3517018;-55
2023/05/19 09:29:43;;;;;;;;;12.33;12.33;;;;;21.67;70.91;100310.53;6317915;20;2792054;-52
2023/05/19 09:32:11;;;;;;;;;11.00;11.00;;;;;21.65;72.03;100322.63;6318896;20;2790155;-55
2023/05/19 09:34:40;;;;;;;;;11.67;11.67;;;;;21.67;72.33;100316.00;6312259;20;3521200;-53
2023/05/19 09:37:12;;;;;;;;;8.67;8.00;;;;;21.52;72.92;100317.50;6290595;20;2754506;-50
2023/05/19 09:39:40;;;;;;;;;10.67;10.67;;;;;21.30;74.58;100309.63;6317995;20;3515887;-51
2023/05/19 09:42:08;;;;;;;;;14.33;13.33;;;;;21.19;75.23;100306.03;6314791;20;3526336;-55
2023/05/19 09:44:36;;;;;;;;;13.00;13.00;;;;;21.13;75.29;100306.66;6280722;20;3523268;-56
2023/05/19 09:47:04;;;;;;;;;10.33;10.33;;;;;21.05;75.75;100303.78;6274980;20;3513894;-52
2023/05/19 09:49:32;;;;;;;;;8.67;8.67;;;;;21.22;72.00;100297.59;6315894;20;3472157;-53
2023/05/19 09:52:04;;;;;;;;;11.33;10.33;;;;;21.78;71.45;100300.41;6321758;20;2786942;-56
2023/05/19 09:54:33;;;;;;;;;11.00;11.00;;;;;21.65;69.71;100296.16;6315200;20;3513809;-56
2023/05/19 09:57:04;;;;;;;;;12.33;10.00;;;;;20.89;73.70;100300.81;6313225;20;2781540;-54
2023/05/19 09:59:37;;;;;;;;;10.00;9.00;;;;;20.46;73.96;100293.88;6314655;20;2777429;-54
2023/05/19 10:02:17;;;;;;;;;11.67;11.67;;;;;21.44;72.03;100292.78;6314423;20;3521191;-52
2023/05/19 10:04:47;;;;;;;;;9.33;8.67;;;;;20.98;74.57;100292.59;6316400;20;3480593;-56
2023/05/19 10:07:16;;;;;;;;;10.00;10.00;;;;;21.74;71.60;100288.06;6310446;20;3512757;-55
2023/05/19 10:09:45;;;;;;;;;12.33;9.00;;;;;22.42;68.69;100287.66;6284305;20;2773246;-55
2023/05/19 10:12:13;;;;;;;;;10.33;9.00;;;;;22.78;66.49;100285.75;6311961;20;2776696;-56
2023/05/19 10:14:41;;;;;;;;;10.00;10.00;;;;;23.23;64.36;100292.94;6320273;20;2780505;-55
2023/05/19 10:17:11;;;;;;;;;12.67;12.67;;;;;23.07;65.46;100292.84;6316962;20;2483721;-53
2023/05/19 10:19:40;;;;;;;;;10.33;9.00;;;;;22.26;66.29;100291.06;6314855;20;2769099;-55
2023/05/19 10:22:08;;;;;;;;;9.00;9.00;;;;;22.57;62.98;100284.19;6312341;20;2752396;-52
2023/05/19 10:24:36;;;;;;;;;8.33;8.33;;;;;23.23;64.29;100292.94;6314677;20;2746176;-54
2023/05/19 10:27:10;;;;;;;;;10.00;10.00;;;;;23.33;63.91;100287.34;6313397;20;3522205;-54
2023/05/19 10:29:43;;;;;;;;;9.67;9.67;;;;;23.52;63.60;100289.00;6314590;20;2775706;-49
2023/05/19 10:32:16;;;;;;;;;10.00;10.00;;;;;23.37;63.33;100275.91;6313506;20;2781528;-54
2023/05/19 10:35:31;;;;;;;;;8.67;8.67;;;;;22.88;62.18;100271.94;6312107;20;3480482;-50
2023/05/19 10:38:19;;;;;;;;;9.60;9.00;;;;;23.61;63.29;100268.81;6339813;20;2773238;-51
2023/05/19 10:41:13;;;;;;;;;7.80;7.80;;;;;22.97;60.63;100271.88;6311616;20;2744071;-48
2023/05/19 10:43:53;;;;;;;;;8.67;8.00;;;;;22.58;58.75;100261.28;6281615;20;2755494;-58
2023/05/19 10:46:27;;;;;;;;;7.60;7.00;;;;;22.66;60.10;100251.41;6338307;20;2750373;-53
2023/05/19 10:48:55;;;;;;;;;9.33;9.00;;;;;22.32;61.57;100249.41;6284787;20;2751331;-52
2023/05/19 10:51:33;;;;;;;;;13.00;10.00;;;;;23.12;62.62;100252.13;6314146;20;2790918;-55
2023/05/19 10:54:08;;;;;;;;;8.33;8.33;;;;;23.34;60.22;100259.78;6320834;20;2756519;-53
2023/05/19 10:56:46;;;;;;;;;8.67;8.67;;;;;23.18;59.87;100256.97;6315335;20;2750440;-53
2023/05/19 10:59:34;;;;;;;;;9.67;9.67;;;;;23.29;61.88;100253.94;6315543;20;3501293;-52
2023/05/19 11:02:07;;;;;;;;;9.33;9.00;;;;;23.14;62.52;100253.66;6320054;20;2759025;-52
2023/05/19 11:04:52;;;;;;;;;9.00;8.33;;;;;23.33;64.14;100252.59;6324186;20;2746123;-51
2023/05/19 11:07:23;;;;;;;;;10.40;8.60;;;;;23.14;63.15;100247.34;6338787;20;2763927;-52